createdAt,value
2017-09-07T00:00:52.572Z,14.60
2017-09-07T00:03:59.217Z,14.60
2017-09-07T00:07:04.212Z,14.50
2017-09-07T00:10:08.899Z,14.50
2017-09-07T00:13:14.343Z,14.40
2017-09-07T00:16:19.143Z,14.50
2017-09-07T00:19:24.411Z,14.40
2017-09-07T00:22:29.974Z,14.40
2017-09-07T00:25:34.948Z,14.40
2017-09-07T00:28:40.067Z,14.40
2017-09-07T00:31:45.671Z,14.30
2017-09-07T00:34:51.412Z,14.30
2017-09-07T00:37:56.876Z,14.30
2017-09-07T00:41:01.696Z,14.20
2017-09-07T00:44:06.880Z,14.30
2017-09-07T00:47:11.918Z,14.30
2017-09-07T00:50:17.448Z,14.30
2017-09-07T00:53:22.854Z,14.20
2017-09-07T00:56:28.409Z,14.20
2017-09-07T00:59:33.832Z,14.20
2017-09-07T01:02:38.959Z,14.10
2017-09-07T01:05:46.856Z,14.10
2017-09-07T01:08:53.957Z,14.20
2017-09-07T01:11:59.076Z,14.30
2017-09-07T01:15:05.443Z,14.20
2017-09-07T01:18:10.272Z,14.20
2017-09-07T01:21:15.476Z,14.20
2017-09-07T01:24:21.020Z,14.20
2017-09-07T01:27:26.654Z,14.20
2017-09-07T01:30:31.462Z,14.20
2017-09-07T01:33:36.916Z,14.10
2017-09-07T01:36:42.604Z,14.10
2017-09-07T01:39:47.767Z,14.00
2017-09-07T01:42:53.135Z,13.90
2017-09-07T01:45:58.798Z,13.90
2017-09-07T01:49:08.104Z,13.80
2017-09-07T01:52:13.200Z,13.90
2017-09-07T01:55:18.188Z,13.90
2017-09-07T01:58:23.796Z,13.90
2017-09-07T02:01:28.879Z,13.90
2017-09-07T02:04:34.058Z,13.90
2017-09-07T02:07:39.624Z,13.80
2017-09-07T02:10:45.411Z,13.80
2017-09-07T02:13:50.827Z,13.80
2017-09-07T02:16:56.083Z,13.80
2017-09-07T02:20:00.999Z,13.70
2017-09-07T02:23:05.795Z,13.70
2017-09-07T02:26:10.912Z,13.70
2017-09-07T02:29:16.560Z,13.70
2017-09-07T02:32:22.015Z,13.60
2017-09-07T02:35:27.313Z,13.50
2017-09-07T02:38:33.008Z,13.50
2017-09-07T02:41:38.176Z,13.50
2017-09-07T02:44:43.716Z,13.50
2017-09-07T02:47:48.748Z,13.40
2017-09-07T02:50:53.880Z,13.40
2017-09-07T02:53:59.193Z,13.40
2017-09-07T02:57:04.702Z,13.40
2017-09-07T03:00:09.798Z,13.40
2017-09-07T03:03:15.436Z,13.40
2017-09-07T03:06:20.416Z,13.40
2017-09-07T03:09:25.965Z,13.40
2017-09-07T03:12:30.848Z,13.30
2017-09-07T03:15:36.399Z,13.20
2017-09-07T03:18:41.155Z,13.20
2017-09-07T03:21:46.400Z,13.10
2017-09-07T03:24:51.359Z,13.10
2017-09-07T03:27:57.039Z,13.10
2017-09-07T03:31:01.836Z,13.10
2017-09-07T03:34:07.511Z,13.20
2017-09-07T03:37:12.563Z,13.10
2017-09-07T03:40:18.316Z,13.10
2017-09-07T03:43:23.819Z,13.10
2017-09-07T03:46:28.972Z,13.10
2017-09-07T03:49:34.605Z,13.00
2017-09-07T03:52:41.131Z,13.10
2017-09-07T03:55:45.852Z,13.10
2017-09-07T03:58:51.171Z,13.10
2017-09-07T04:01:56.618Z,13.10
2017-09-07T04:05:03.915Z,13.10
2017-09-07T04:08:09.343Z,13.00
2017-09-07T04:11:14.154Z,13.00
2017-09-07T04:14:19.528Z,13.00
2017-09-07T04:17:24.700Z,12.90
2017-09-07T04:20:30.319Z,12.90
2017-09-07T04:23:35.405Z,12.90
2017-09-07T04:26:40.763Z,12.90
2017-09-07T04:29:45.803Z,12.90
2017-09-07T04:32:50.702Z,12.90
2017-09-07T04:35:55.891Z,12.90
2017-09-07T04:39:01.527Z,12.90
2017-09-07T04:42:06.771Z,12.90
2017-09-07T04:45:11.978Z,12.90
2017-09-07T04:48:17.353Z,12.90
2017-09-07T04:51:22.364Z,12.90
2017-09-07T04:54:27.995Z,12.90
2017-09-07T04:57:33.517Z,12.90
2017-09-07T05:00:38.403Z,13.00
2017-09-07T05:03:43.436Z,13.00
2017-09-07T05:06:48.216Z,12.90
2017-09-07T05:09:53.812Z,13.00
2017-09-07T05:12:58.867Z,13.00
2017-09-07T05:16:03.751Z,13.00
2017-09-07T05:19:09.244Z,13.10
2017-09-07T05:22:14.852Z,13.00
2017-09-07T05:25:20.702Z,13.10
2017-09-07T05:28:26.060Z,13.10
2017-09-07T05:31:31.145Z,13.10
2017-09-07T05:34:36.434Z,13.20
2017-09-07T05:37:42.932Z,13.40
2017-09-07T05:40:48.772Z,13.50
2017-09-07T05:43:54.199Z,13.60
2017-09-07T05:46:59.635Z,13.60
2017-09-07T05:50:04.731Z,13.80
2017-09-07T05:53:09.515Z,13.80
2017-09-07T05:56:14.593Z,13.90
2017-09-07T05:59:19.506Z,13.80
2017-09-07T06:02:24.288Z,13.80
2017-09-07T06:05:29.307Z,13.90
2017-09-07T06:08:34.319Z,14.00
2017-09-07T06:11:39.385Z,14.10
2017-09-07T06:14:45.016Z,14.10
2017-09-07T06:17:50.430Z,14.30
2017-09-07T06:20:56.999Z,14.40
2017-09-07T06:24:01.941Z,14.50
2017-09-07T06:27:07.308Z,14.70
2017-09-07T06:30:12.555Z,14.90
2017-09-07T06:33:18.309Z,14.90
2017-09-07T06:36:23.753Z,15.00
2017-09-07T06:39:28.507Z,15.00
2017-09-07T06:42:33.843Z,15.10
2017-09-07T06:45:38.839Z,15.10
2017-09-07T06:48:46.304Z,15.20
2017-09-07T06:51:50.979Z,15.20
2017-09-07T06:54:56.143Z,15.20
2017-09-07T06:58:02.747Z,15.20
2017-09-07T07:01:08.303Z,15.20
2017-09-07T07:04:13.974Z,15.30
2017-09-07T07:07:19.739Z,15.40
2017-09-07T07:10:25.955Z,15.40
2017-09-07T07:13:31.704Z,15.20
2017-09-07T07:16:37.040Z,15.10
2017-09-07T07:19:43.291Z,15.10
2017-09-07T07:22:48.461Z,15.20
2017-09-07T07:25:59.425Z,15.40
2017-09-07T07:29:04.936Z,15.60
2017-09-07T07:32:10.116Z,15.80
2017-09-07T07:35:15.228Z,15.90
2017-09-07T07:38:20.359Z,16.10
2017-09-07T07:41:26.112Z,16.10
2017-09-07T07:44:31.471Z,16.10
2017-09-07T07:47:40.372Z,16.20
2017-09-07T07:50:46.093Z,16.40
2017-09-07T07:53:50.956Z,16.50
2017-09-07T07:56:55.880Z,16.70
2017-09-07T08:00:00.679Z,16.70
2017-09-07T08:03:06.052Z,16.70
2017-09-07T08:06:11.060Z,16.70
2017-09-07T08:09:16.218Z,16.70
2017-09-07T08:12:21.896Z,16.90
2017-09-07T08:15:27.108Z,17.10
2017-09-07T08:18:32.346Z,17.30
2017-09-07T08:21:37.238Z,17.20
2017-09-07T08:24:42.759Z,17.30
2017-09-07T08:27:48.491Z,17.40
2017-09-07T08:30:54.628Z,17.50
2017-09-07T08:33:59.892Z,17.50
2017-09-07T08:37:04.655Z,17.70
2017-09-07T08:40:09.635Z,17.80
2017-09-07T08:43:14.800Z,17.90
2017-09-07T08:46:19.947Z,17.80
2017-09-07T08:49:25.181Z,17.80
2017-09-07T08:52:30.927Z,17.70
2017-09-07T08:55:36.171Z,17.70
2017-09-07T08:58:41.720Z,17.80
2017-09-07T09:01:46.971Z,18.00
2017-09-07T09:04:52.811Z,18.00
2017-09-07T09:07:58.374Z,18.00
2017-09-07T09:11:03.884Z,18.20
2017-09-07T09:14:12.391Z,18.30
2017-09-07T09:17:17.820Z,18.20
2017-09-07T09:20:24.467Z,18.40
2017-09-07T09:23:30.606Z,18.50
2017-09-07T09:26:37.894Z,18.60
2017-09-07T09:29:44.755Z,18.70
2017-09-07T09:32:50.063Z,18.90
2017-09-07T09:35:54.977Z,18.90
2017-09-07T09:39:00.240Z,19.20
2017-09-07T09:42:05.885Z,19.50
2017-09-07T09:45:11.011Z,19.60
2017-09-07T09:48:22.867Z,19.60
2017-09-07T09:51:28.033Z,19.70
2017-09-07T09:54:33.201Z,19.40
2017-09-07T09:57:38.478Z,19.20
2017-09-07T10:00:43.493Z,18.90
2017-09-07T10:03:49.164Z,18.70
2017-09-07T10:06:54.508Z,18.60
2017-09-07T10:09:59.291Z,18.50
2017-09-07T10:13:04.583Z,18.50
2017-09-07T10:16:09.350Z,18.50
2017-09-07T10:19:15.261Z,18.40
2017-09-07T10:22:20.621Z,18.40
2017-09-07T10:25:26.145Z,18.50
2017-09-07T10:28:31.368Z,18.70
2017-09-07T10:31:37.291Z,18.80
2017-09-07T10:34:43.824Z,18.70
2017-09-07T10:37:48.705Z,18.80
2017-09-07T10:40:54.013Z,19.00
2017-09-07T10:44:01.157Z,19.40
2017-09-07T10:47:06.791Z,19.80
2017-09-07T10:50:11.800Z,19.70
2017-09-07T10:53:16.822Z,19.50
2017-09-07T10:56:22.479Z,19.30
2017-09-07T10:59:27.991Z,19.20
2017-09-07T11:02:33.430Z,19.50
2017-09-07T11:05:38.476Z,19.80
2017-09-07T11:08:44.004Z,20.00
2017-09-07T11:11:49.203Z,20.20
2017-09-07T11:14:53.940Z,20.50
2017-09-07T11:17:58.916Z,20.60
2017-09-07T11:21:04.353Z,20.60
2017-09-07T11:24:09.940Z,20.70
2017-09-07T11:27:15.064Z,20.50
2017-09-07T11:30:20.011Z,20.50
2017-09-07T11:33:25.024Z,20.50
2017-09-07T11:36:30.741Z,20.60
2017-09-07T11:39:35.592Z,20.70
2017-09-07T11:42:40.491Z,20.90
2017-09-07T11:45:47.040Z,20.70
2017-09-07T11:48:51.844Z,20.60
2017-09-07T11:51:57.270Z,20.50
2017-09-07T11:55:02.915Z,20.20
2017-09-07T11:58:08.335Z,19.80
2017-09-07T12:01:14.083Z,19.70
2017-09-07T12:04:18.924Z,19.60
2017-09-07T12:07:23.928Z,19.70
2017-09-07T12:10:29.585Z,19.70
2017-09-07T12:13:36.284Z,19.60
2017-09-07T12:16:41.844Z,19.40
2017-09-07T12:19:47.571Z,19.30
2017-09-07T12:22:52.739Z,19.20
2017-09-07T12:25:57.661Z,19.20
2017-09-07T12:29:02.771Z,19.00
2017-09-07T12:32:07.664Z,19.00
2017-09-07T12:35:12.455Z,19.30
2017-09-07T12:38:17.651Z,19.70
2017-09-07T12:41:22.547Z,19.90
2017-09-07T12:44:27.432Z,20.10
2017-09-07T12:47:32.247Z,20.30
2017-09-07T12:50:38.708Z,20.30
2017-09-07T12:53:44.408Z,20.30
2017-09-07T12:56:49.612Z,20.60
2017-09-07T12:59:55.448Z,20.60
2017-09-07T13:03:00.451Z,20.60
2017-09-07T13:06:05.991Z,20.50
2017-09-07T13:09:11.131Z,20.60
2017-09-07T13:12:16.454Z,20.80
2017-09-07T13:15:22.385Z,20.80
2017-09-07T13:18:27.425Z,20.90
2017-09-07T13:21:32.756Z,21.00
2017-09-07T13:24:38.063Z,21.20
2017-09-07T13:27:43.484Z,21.30
2017-09-07T13:30:48.512Z,21.40
2017-09-07T13:33:53.913Z,21.30
2017-09-07T13:37:00.205Z,21.10
2017-09-07T13:40:05.234Z,20.90
2017-09-07T13:43:09.937Z,20.90
2017-09-07T13:46:14.750Z,20.90
2017-09-07T13:49:20.432Z,20.80
2017-09-07T13:52:25.528Z,20.90
2017-09-07T13:55:30.536Z,20.90
2017-09-07T13:58:35.814Z,21.10
2017-09-07T14:01:40.961Z,21.20
2017-09-07T14:04:46.178Z,21.30
2017-09-07T14:07:51.181Z,20.90
2017-09-07T14:10:56.808Z,20.80
2017-09-07T14:14:02.552Z,21.00
2017-09-07T14:17:07.671Z,21.20
2017-09-07T14:20:13.430Z,21.10
2017-09-07T14:23:18.537Z,21.10
2017-09-07T14:26:24.171Z,21.20
2017-09-07T14:29:29.717Z,21.20
2017-09-07T14:32:35.016Z,21.40
2017-09-07T14:35:40.475Z,21.30
2017-09-07T14:38:45.378Z,21.00
2017-09-07T14:41:50.659Z,20.60
2017-09-07T14:44:56.201Z,20.60
2017-09-07T14:48:01.650Z,20.90
2017-09-07T14:51:06.784Z,20.90
2017-09-07T14:54:12.345Z,20.80
2017-09-07T14:57:17.477Z,20.60
2017-09-07T15:00:24.477Z,20.60
2017-09-07T15:03:29.639Z,20.70
2017-09-07T15:06:34.800Z,20.60
2017-09-07T15:09:40.047Z,20.50
2017-09-07T15:12:45.591Z,20.30
2017-09-07T15:15:50.639Z,20.10
2017-09-07T15:18:56.144Z,19.90
2017-09-07T15:22:01.921Z,19.70
2017-09-07T15:25:06.773Z,19.60
2017-09-07T15:28:12.319Z,19.50
2017-09-07T15:31:17.145Z,19.50
2017-09-07T15:34:22.196Z,19.50
2017-09-07T15:37:27.052Z,19.50
2017-09-07T15:40:32.796Z,19.60
2017-09-07T15:43:39.301Z,19.60
2017-09-07T15:46:44.775Z,19.60
2017-09-07T15:49:49.931Z,19.50
2017-09-07T15:52:54.796Z,19.40
2017-09-07T15:56:00.621Z,19.30
2017-09-07T15:59:05.456Z,19.10
2017-09-07T16:02:10.916Z,19.00
2017-09-07T16:05:16.440Z,18.90
2017-09-07T16:08:22.145Z,18.90
2017-09-07T16:11:27.331Z,19.00
2017-09-07T16:14:33.095Z,19.00
2017-09-07T16:17:38.096Z,19.00
2017-09-07T16:20:43.851Z,19.10
2017-09-07T16:23:49.172Z,19.10
2017-09-07T16:26:55.232Z,19.10
2017-09-07T16:30:00.396Z,19.20
2017-09-07T16:33:05.076Z,19.20
2017-09-07T16:36:10.105Z,19.20
2017-09-07T16:39:15.169Z,19.20
2017-09-07T16:42:20.543Z,19.20
2017-09-07T16:45:25.943Z,19.20
2017-09-07T16:48:31.415Z,19.30
2017-09-07T16:51:37.092Z,19.30
2017-09-07T16:54:41.920Z,19.40
2017-09-07T16:57:47.004Z,19.40
2017-09-07T17:00:52.200Z,19.20
2017-09-07T17:03:57.628Z,19.10
2017-09-07T17:07:57.995Z,18.90
2017-09-07T17:11:03.739Z,18.80
2017-09-07T17:14:09.025Z,18.70
2017-09-07T17:17:14.332Z,18.70
2017-09-07T17:20:20.503Z,18.70
2017-09-07T17:23:26.087Z,18.60
2017-09-07T17:26:31.005Z,18.60
2017-09-07T17:29:36.370Z,18.50
2017-09-07T17:32:41.910Z,18.40
2017-09-07T17:35:46.879Z,18.40
2017-09-07T17:38:52.415Z,18.10
2017-09-07T17:41:58.428Z,18.10
2017-09-07T17:45:03.455Z,18.10
2017-09-07T17:48:08.468Z,18.10
2017-09-07T17:51:13.501Z,18.00
2017-09-07T17:54:18.184Z,18.00
2017-09-07T17:57:23.064Z,18.00
2017-09-07T18:00:29.424Z,17.90
2017-09-07T18:03:34.912Z,17.80
2017-09-07T18:06:40.039Z,17.70
2017-09-07T18:09:45.121Z,17.70
2017-09-07T18:12:50.065Z,17.70
2017-09-07T18:15:55.892Z,17.50
2017-09-07T18:19:01.303Z,17.50
2017-09-07T18:22:06.860Z,17.50
2017-09-07T18:25:11.891Z,17.50
2017-09-07T18:28:16.881Z,17.40
2017-09-07T18:31:21.707Z,17.40
2017-09-07T18:34:27.356Z,17.40
2017-09-07T18:37:33.679Z,17.30
2017-09-07T18:40:39.116Z,17.30
2017-09-07T18:43:45.133Z,17.20
2017-09-07T18:46:50.264Z,17.20
2017-09-07T18:49:56.055Z,17.20
2017-09-07T18:53:01.445Z,17.20
2017-09-07T18:56:06.484Z,17.20
2017-09-07T18:59:11.559Z,17.20
2017-09-07T19:02:16.495Z,17.20
2017-09-07T19:05:22.207Z,17.10
2017-09-07T19:08:28.501Z,17.00
2017-09-07T19:11:33.441Z,17.00
2017-09-07T19:14:38.736Z,16.90
2017-09-07T19:17:43.604Z,16.90
2017-09-07T19:20:49.097Z,17.00
2017-09-07T19:23:54.857Z,16.90
2017-09-07T19:26:59.709Z,16.90
2017-09-07T19:30:05.496Z,16.80
2017-09-07T19:33:11.056Z,16.80
2017-09-07T19:36:16.292Z,16.80
2017-09-07T19:39:21.136Z,16.80
2017-09-07T19:42:26.035Z,16.80
2017-09-07T19:45:31.462Z,16.80
2017-09-07T19:48:37.776Z,16.80
2017-09-07T19:51:44.064Z,16.70
2017-09-07T19:54:49.404Z,16.70
2017-09-07T19:57:54.921Z,16.80
2017-09-07T20:01:00.119Z,16.70
2017-09-07T20:04:06.004Z,16.70
2017-09-07T20:07:12.426Z,16.70
2017-09-07T20:10:18.004Z,16.60
2017-09-07T20:13:23.334Z,16.60
2017-09-07T20:16:29.045Z,16.60
2017-09-07T20:19:34.100Z,16.60
2017-09-07T20:22:38.976Z,16.60
2017-09-07T20:25:44.488Z,16.60
2017-09-07T20:28:49.556Z,16.60
2017-09-07T20:31:55.591Z,16.50
2017-09-07T20:35:01.047Z,16.50
2017-09-07T20:38:06.212Z,16.40
2017-09-07T20:41:12.339Z,16.40
2017-09-07T20:44:17.531Z,16.40
2017-09-07T20:47:22.627Z,16.40
2017-09-07T20:50:27.565Z,16.40
2017-09-07T20:53:33.104Z,16.30
2017-09-07T20:56:38.471Z,16.30
2017-09-07T20:59:43.740Z,16.30
2017-09-07T21:02:48.710Z,16.30
2017-09-07T21:05:53.845Z,16.20
2017-09-07T21:08:58.756Z,16.20
2017-09-07T21:12:03.797Z,16.20
2017-09-07T21:15:09.264Z,16.20
2017-09-07T21:18:14.794Z,16.20
2017-09-07T21:21:19.927Z,16.20
2017-09-07T21:24:25.461Z,16.10
2017-09-07T21:27:30.684Z,16.10
2017-09-07T21:30:35.902Z,16.20
2017-09-07T21:33:41.572Z,16.10
2017-09-07T21:36:47.018Z,16.10
2017-09-07T21:39:52.766Z,16.00
2017-09-07T21:42:58.585Z,15.90
2017-09-07T21:46:04.363Z,16.00
2017-09-07T21:49:10.672Z,15.90
2017-09-07T21:52:15.912Z,15.90
2017-09-07T21:55:21.295Z,15.90
2017-09-07T21:58:26.931Z,16.10
2017-09-07T22:01:32.325Z,16.00
2017-09-07T22:04:37.773Z,15.90
2017-09-07T22:07:42.959Z,15.90
2017-09-07T22:10:47.703Z,15.80
2017-09-07T22:13:52.879Z,15.80
2017-09-07T22:16:58.204Z,15.80
2017-09-07T22:20:03.103Z,15.70
2017-09-07T22:23:08.446Z,15.80
2017-09-07T22:26:14.051Z,15.70
2017-09-07T22:29:19.112Z,15.80
2017-09-07T22:32:24.280Z,15.70
2017-09-07T22:35:29.036Z,15.60
2017-09-07T22:38:34.406Z,15.60
2017-09-07T22:41:40.218Z,15.60
2017-09-07T22:44:45.334Z,15.50
2017-09-07T22:47:51.323Z,15.50
2017-09-07T22:50:58.632Z,15.40
2017-09-07T22:54:03.792Z,15.40
2017-09-07T22:57:09.236Z,15.40
2017-09-07T23:00:14.752Z,15.30
2017-09-07T23:03:19.689Z,15.30
2017-09-07T23:06:24.916Z,15.30
2017-09-07T23:09:30.305Z,15.20
2017-09-07T23:12:35.409Z,15.20
2017-09-07T23:15:40.828Z,15.20
2017-09-07T23:18:46.868Z,15.10
2017-09-07T23:21:52.251Z,15.10
2017-09-07T23:24:57.427Z,15.00
2017-09-07T23:28:02.526Z,14.90
2017-09-07T23:31:08.856Z,14.70
2017-09-07T23:34:14.279Z,14.70
2017-09-07T23:37:19.532Z,14.50
2017-09-07T23:40:25.213Z,14.40
2017-09-07T23:43:30.368Z,14.20
2017-09-07T23:46:36.029Z,14.00
2017-09-07T23:49:41.451Z,14.00
2017-09-07T23:52:46.604Z,13.90
2017-09-07T23:55:51.483Z,13.80
2017-09-07T23:58:56.448Z,13.70
